createdAt,value
2022-09-04T00:03:48.558Z,3.90
2022-09-04T00:09:08.836Z,3.47
2022-09-04T00:14:17.629Z,3.65
2022-09-04T00:19:28.659Z,4.93
2022-09-04T00:24:38.092Z,5.10
2022-09-04T00:29:49.013Z,5.93
2022-09-04T00:35:13.549Z,3.88
2022-09-04T00:40:31.325Z,5.37
2022-09-04T00:45:46.375Z,4.75
2022-09-04T00:51:15.106Z,5.60
2022-09-04T00:56:53.281Z,3.65
2022-09-04T01:02:02.455Z,5.93
2022-09-04T01:07:24.109Z,4.72
2022-09-04T01:12:37.499Z,3.95
2022-09-04T01:17:48.153Z,4.40
2022-09-04T01:23:09.995Z,3.53
2022-09-04T01:28:23.440Z,3.53
2022-09-04T01:33:35.630Z,9.20
2022-09-04T01:38:44.248Z,6.57
2022-09-04T01:43:48.991Z,4.05
2022-09-04T01:48:58.996Z,5.50
2022-09-04T01:54:13.723Z,8.07
2022-09-04T01:59:26.637Z,6.35
2022-09-04T02:04:32.737Z,8.05
2022-09-04T02:09:42.924Z,6.95
2022-09-04T02:14:54.430Z,6.30
2022-09-04T02:20:08.867Z,9.13
2022-09-04T02:25:21.796Z,7.37
2022-09-04T02:30:26.734Z,6.78
2022-09-04T02:40:44.096Z,6.20
2022-09-04T02:45:55.490Z,7.45
2022-09-04T02:51:13.769Z,7.45
2022-09-04T02:56:26.201Z,8.90
2022-09-04T03:01:40.807Z,7.45
2022-09-04T03:06:52.133Z,7.57
2022-09-04T03:12:01.970Z,10.15
2022-09-04T03:17:16.462Z,7.93
2022-09-04T03:22:24.633Z,10.63
2022-09-04T03:27:28.589Z,7.53
2022-09-04T03:32:39.073Z,6.40
2022-09-04T03:37:53.984Z,9.10
2022-09-04T03:43:14.945Z,7.03
2022-09-04T03:48:33.915Z,5.80
2022-09-04T03:53:42.754Z,13.05
2022-09-04T03:58:52.781Z,9.07
2022-09-04T04:04:18.762Z,8.38
2022-09-04T04:09:36.748Z,7.88
2022-09-04T04:14:57.171Z,8.55
2022-09-04T04:20:14.964Z,9.93
2022-09-04T04:25:29.257Z,6.68
2022-09-04T04:30:44.838Z,9.90
2022-09-04T04:35:55.825Z,9.10
2022-09-04T04:41:11.510Z,8.05
2022-09-04T04:46:24.133Z,7.60
2022-09-04T04:51:43.901Z,7.50
2022-09-04T04:56:55.044Z,6.75
2022-09-04T05:02:07.887Z,9.70
2022-09-04T05:07:22.257Z,6.50
2022-09-04T05:12:32.724Z,7.40
2022-09-04T05:17:41.679Z,8.75
2022-09-04T05:22:51.745Z,12.68
2022-09-04T05:28:04.413Z,9.80
2022-09-04T05:33:17.121Z,8.20
2022-09-04T05:38:29.369Z,8.35
2022-09-04T05:43:49.698Z,7.00
2022-09-04T05:49:01.702Z,9.90
2022-09-04T05:54:34.269Z,7.30
2022-09-04T05:59:53.861Z,5.97
2022-09-04T06:05:10.458Z,9.02
2022-09-04T06:10:20.300Z,7.53
2022-09-04T06:15:41.721Z,6.30
2022-09-04T06:21:08.251Z,6.10
2022-09-04T06:26:26.907Z,4.72
2022-09-04T06:31:56.777Z,5.65
2022-09-04T06:37:12.922Z,6.55
2022-09-04T06:42:36.724Z,3.95
2022-09-04T06:47:52.117Z,5.85
2022-09-04T06:53:18.266Z,5.75
2022-09-04T06:59:06.304Z,7.85
2022-09-04T07:04:21.679Z,6.07
2022-09-04T07:09:29.832Z,4.20
2022-09-04T07:14:47.245Z,10.07
2022-09-04T07:20:03.194Z,4.47
2022-09-04T07:25:14.276Z,4.90
2022-09-04T07:30:20.055Z,3.53
2022-09-04T07:35:31.273Z,3.72
2022-09-04T07:40:38.551Z,4.93
2022-09-04T07:45:51.155Z,2.90
2022-09-04T07:51:04.037Z,4.35
2022-09-04T07:56:18.348Z,3.50
2022-09-04T08:01:40.699Z,4.77
2022-09-04T08:06:50.101Z,4.97
2022-09-04T08:12:23.344Z,3.65
2022-09-04T08:18:03.186Z,4.95
2022-09-04T08:23:19.952Z,6.18
2022-09-04T08:28:36.140Z,2.88
2022-09-04T08:34:20.661Z,2.63
2022-09-04T08:39:39.088Z,2.15
2022-09-04T08:45:23.715Z,2.80
2022-09-04T08:50:51.693Z,3.83
2022-09-04T08:56:20.568Z,4.10
2022-09-04T09:02:05.843Z,3.20
2022-09-04T09:12:47.944Z,1.63
2022-09-04T09:18:03.725Z,3.25
2022-09-04T09:23:21.038Z,2.78
2022-09-04T09:28:59.745Z,2.58
2022-09-04T09:34:40.917Z,2.45
2022-09-04T09:40:10.076Z,1.95
2022-09-04T09:45:27.975Z,2.63
2022-09-04T09:51:02.038Z,2.00
2022-09-04T09:56:53.762Z,2.65
2022-09-04T10:02:23.694Z,2.67
2022-09-04T10:07:57.648Z,2.97
2022-09-04T10:13:21.105Z,2.30
2022-09-04T10:19:04.103Z,2.65
2022-09-04T10:24:35.566Z,2.10
2022-09-04T10:29:51.761Z,2.30
2022-09-04T10:35:11.749Z,2.03
2022-09-04T10:40:43.262Z,2.40
2022-09-04T10:45:48.411Z,3.55
2022-09-04T10:51:27.204Z,6.80
2022-09-04T10:56:37.151Z,3.25
2022-09-04T11:02:03.483Z,4.28
2022-09-04T11:07:33.484Z,8.38
2022-09-04T11:12:52.334Z,2.38
2022-09-04T11:18:30.550Z,3.05
2022-09-04T11:24:21.008Z,2.88
2022-09-04T11:29:54.374Z,2.22
2022-09-04T11:35:23.897Z,2.30
2022-09-04T11:41:00.632Z,2.88
2022-09-04T11:46:35.399Z,2.30
2022-09-04T11:51:56.145Z,4.15
2022-09-04T11:57:13.885Z,2.17
2022-09-04T12:02:45.939Z,2.33
2022-09-04T12:08:07.187Z,4.97
2022-09-04T12:13:40.105Z,4.35
2022-09-04T12:19:13.150Z,2.22
2022-09-04T12:24:47.694Z,3.20
2022-09-04T12:35:43.899Z,2.63
2022-09-04T12:40:58.428Z,3.78
2022-09-04T12:46:16.755Z,4.20
2022-09-04T12:51:25.209Z,3.05
2022-09-04T12:56:42.222Z,3.20
2022-09-04T13:01:59.188Z,2.58
2022-09-04T13:07:22.821Z,4.50
2022-09-04T13:12:32.251Z,3.87
2022-09-04T13:17:45.728Z,5.47
2022-09-04T13:23:04.454Z,3.10
2022-09-04T13:28:20.248Z,1.45
2022-09-04T13:33:42.291Z,5.95
2022-09-04T13:39:27.251Z,3.38
2022-09-04T13:44:57.845Z,2.75
2022-09-04T13:50:10.119Z,3.22
2022-09-04T13:55:19.257Z,3.47
2022-09-04T14:00:22.400Z,2.22
2022-09-04T14:05:29.249Z,2.37
2022-09-04T14:10:50.651Z,4.75
2022-09-04T14:16:04.608Z,2.15
2022-09-04T14:21:17.133Z,4.38
2022-09-04T14:26:31.091Z,2.63
2022-09-04T14:31:42.128Z,1.95
2022-09-04T14:37:01.669Z,4.35
2022-09-04T14:42:28.496Z,1.63
2022-09-04T14:47:40.157Z,6.43
2022-09-04T14:52:48.548Z,2.75
2022-09-04T14:57:56.672Z,3.13
2022-09-04T15:03:09.694Z,3.63
2022-09-04T15:08:27.242Z,1.85
2022-09-04T15:13:42.058Z,3.30
2022-09-04T15:18:56.139Z,4.00
2022-09-04T15:24:13.001Z,1.77
2022-09-04T15:29:21.835Z,4.10
2022-09-04T15:34:27.437Z,3.63
2022-09-04T15:39:38.071Z,2.08
2022-09-04T15:44:44.837Z,3.80
2022-09-04T15:49:51.522Z,3.83
2022-09-04T15:55:24.107Z,3.00
2022-09-04T16:00:32.011Z,1.73
2022-09-04T16:05:54.345Z,1.88
2022-09-04T16:11:03.809Z,1.80
2022-09-04T16:16:12.407Z,2.95
2022-09-04T16:21:24.432Z,2.65
2022-09-04T16:26:33.023Z,2.47
2022-09-04T16:31:36.962Z,2.38
2022-09-04T16:36:45.689Z,1.80
2022-09-04T16:41:56.573Z,3.25
2022-09-04T16:47:11.887Z,2.17
2022-09-04T16:52:31.972Z,2.25
2022-09-04T16:57:43.324Z,1.90
2022-09-04T17:02:50.692Z,4.68
2022-09-04T17:07:59.305Z,3.83
2022-09-04T17:13:12.677Z,2.17
2022-09-04T17:18:21.979Z,2.80
2022-09-04T17:28:54.532Z,2.28
2022-09-04T17:29:29.806Z,1.98
2022-09-04T17:40:32.990Z,3.17
2022-09-04T17:40:55.086Z,3.28
2022-09-04T17:45:51.257Z,3.85
2022-09-04T17:50:58.534Z,2.92
2022-09-04T17:56:08.682Z,2.60
2022-09-04T18:01:21.979Z,5.45
2022-09-04T18:06:27.714Z,6.47
2022-09-04T18:11:40.731Z,11.57
2022-09-04T18:17:11.812Z,10.05
2022-09-04T18:22:33.441Z,20.55
2022-09-04T18:27:44.730Z,17.52
2022-09-04T18:37:15.726Z,12.48
2022-09-04T18:38:20.447Z,8.90
2022-09-04T18:50:24.612Z,8.20
2022-09-04T18:50:33.642Z,3.60
2022-09-04T18:54:29.177Z,8.68
2022-09-04T18:59:36.415Z,4.18
2022-09-04T19:04:50.897Z,6.47
2022-09-04T19:10:05.562Z,5.15
2022-09-04T19:15:35.968Z,11.10
2022-09-04T19:20:47.488Z,6.90
2022-09-04T19:25:55.011Z,13.15
2022-09-04T19:31:02.816Z,6.03
2022-09-04T19:36:12.816Z,8.45
2022-09-04T19:46:01.269Z,5.97
2022-09-04T19:46:54.760Z,4.68
2022-09-04T19:53:31.769Z,6.38
2022-09-04T19:57:34.125Z,5.85
2022-09-04T20:02:46.291Z,4.97
2022-09-04T20:07:56.865Z,4.65
2022-09-04T20:13:12.444Z,2.67
2022-09-04T20:18:19.334Z,5.38
2022-09-04T20:23:35.205Z,3.80
2022-09-04T20:28:51.214Z,4.63
2022-09-04T20:33:59.201Z,5.10
2022-09-04T20:39:10.029Z,4.38
2022-09-04T20:44:19.146Z,5.85
2022-09-04T20:52:49.570Z,3.55
2022-09-04T20:55:09.131Z,7.35
2022-09-04T21:03:21.628Z,6.80
2022-09-04T21:05:50.791Z,7.18
2022-09-04T21:11:16.494Z,6.30
2022-09-04T21:16:42.189Z,6.68
2022-09-04T21:21:57.313Z,8.23
2022-09-04T21:27:24.187Z,5.25
2022-09-04T21:33:26.571Z,3.97
2022-09-04T21:39:06.290Z,3.60
2022-09-04T21:44:36.515Z,3.63
2022-09-04T21:49:57.081Z,6.00
2022-09-04T21:59:29.961Z,6.80
2022-09-04T22:02:44.436Z,5.93
2022-09-04T22:06:31.340Z,4.00
2022-09-04T22:13:43.379Z,7.05
2022-09-04T22:17:58.613Z,4.40
2022-09-04T22:23:40.921Z,8.98
2022-09-04T22:28:55.656Z,5.72
2022-09-04T22:34:28.617Z,4.53
2022-09-04T22:40:05.619Z,5.90
2022-09-04T22:45:41.434Z,3.92
2022-09-04T22:51:01.864Z,6.00
2022-09-04T22:56:23.544Z,6.43
2022-09-04T23:02:03.008Z,7.40
2022-09-04T23:13:42.061Z,6.18
2022-09-04T23:13:51.734Z,6.90
2022-09-04T23:25:33.925Z,5.93
2022-09-04T23:26:47.170Z,5.85
2022-09-04T23:30:50.354Z,4.25
2022-09-04T23:36:02.793Z,7.68
2022-09-04T23:41:17.085Z,6.10
2022-09-04T23:46:44.910Z,6.77
2022-09-04T23:51:56.174Z,6.57
2022-09-04T23:57:08.513Z,5.25
